Time;durP1;ratioP1;P1;durP2;ratioP2;P2;SDS_P1;SDS_P2;PMS_P1;PMS_P2;Temp;Humidity;BMP_temperature;BMP_pressure;BME280_temperature;BME280_humidity;BME280_pressure;Samples;Min_cycle;Max_cycle;Signal;HPM_P1;HPM_P2
2021/09/12 00:01:37;;;;;;;16.48;12.00;;;28.60;99.90;;;;;;4195910;28;20495;-66
2021/09/12 00:03:42;;;;;;;18.52;11.60;;;28.60;99.90;;;;;;4197793;28;20036;-65
2021/09/12 00:05:46;;;;;;;15.80;9.65;;;28.60;99.90;;;;;;4197287;28;20094;-65
2021/09/12 00:07:51;;;;;;;11.40;8.98;;;28.70;99.90;;;;;;4196894;28;20072;-66
2021/09/12 00:09:55;;;;;;;12.45;7.35;;;28.70;99.90;;;;;;4195923;28;20048;-66
2021/09/12 00:12:00;;;;;;;11.30;7.30;;;28.70;99.90;;;;;;4195630;28;20056;-65
2021/09/12 00:14:04;;;;;;;12.50;6.45;;;28.80;99.90;;;;;;4196383;28;20121;-65
2021/09/12 00:16:09;;;;;;;10.38;6.60;;;28.70;99.90;;;;;;4195808;28;20132;-65
2021/09/12 00:18:13;;;;;;;8.43;4.95;;;28.80;99.90;;;;;;4193179;28;20040;-65
2021/09/12 00:20:18;;;;;;;9.05;5.05;;;28.80;99.90;;;;;;4195167;28;20135;-67
2021/09/12 00:22:22;;;;;;;9.43;4.95;;;28.80;99.90;;;;;;4195399;28;20136;-66
2021/09/12 00:24:27;;;;;;;8.43;3.97;;;28.90;99.90;;;;;;4195528;28;20068;-66
2021/09/12 00:26:32;;;;;;;9.27;4.22;;;28.90;99.90;;;;;;4193109;28;20040;-67
2021/09/12 00:28:36;;;;;;;4.38;3.40;;;28.90;99.90;;;;;;4196830;28;20041;-66
2021/09/12 00:30:41;;;;;;;5.47;3.00;;;29.00;99.90;;;;;;4194530;28;20045;-66
2021/09/12 00:32:46;;;;;;;3.85;2.60;;;29.00;99.90;;;;;;4197275;28;20044;-67
2021/09/12 00:34:51;;;;;;;6.72;3.10;;;28.90;99.90;;;;;;4197328;28;20055;-67
2021/09/12 00:36:55;;;;;;;6.10;2.53;;;28.90;99.90;;;;;;4196051;28;20048;-66
2021/09/12 00:39:01;;;;;;;3.88;2.30;;;28.90;99.90;;;;;;4196105;28;20052;-66
2021/09/12 00:41:05;;;;;;;3.17;1.95;;;28.90;99.90;;;;;;4195952;28;20795;-66
2021/09/12 00:43:10;;;;;;;5.60;2.33;;;28.90;99.90;;;;;;4195598;28;20055;-66
2021/09/12 00:45:14;;;;;;;4.55;1.80;;;28.90;99.90;;;;;;4194864;28;20036;-66
2021/09/12 00:47:21;;;;;;;6.05;2.00;;;28.80;99.90;;;;;;4194353;28;20096;-66
2021/09/12 00:49:26;;;;;;;4.10;2.20;;;28.80;99.90;;;;;;4195034;28;20040;-66
2021/09/12 00:51:33;;;;;;;3.10;2.00;;;28.80;99.90;;;;;;4192565;28;20068;-67
2021/09/12 00:53:39;;;;;;;6.03;2.38;;;29.00;99.90;;;;;;4178409;28;20051;-67
2021/09/12 00:55:45;;;;;;;5.22;2.30;;;28.80;99.90;;;;;;4194668;28;20083;-67
2021/09/12 00:57:52;;;;;;;6.50;2.40;;;28.90;99.90;;;;;;4163144;28;20057;-66
2021/09/12 00:59:56;;;;;;;4.68;2.10;;;28.90;99.90;;;;;;4195749;28;20045;-67
2021/09/12 01:02:01;;;;;;;6.22;2.60;;;29.10;99.90;;;;;;4195175;28;20083;-67
2021/09/12 01:04:06;;;;;;;5.50;2.78;;;29.10;99.90;;;;;;4193319;28;20049;-66
2021/09/12 01:06:11;;;;;;;4.13;2.63;;;29.20;99.90;;;;;;4178542;28;20029;-66
2021/09/12 01:08:16;;;;;;;9.68;2.60;;;29.30;99.90;;;;;;4194467;28;20753;-66
2021/09/12 01:10:23;;;;;;;5.18;2.80;;;29.20;99.90;;;;;;4145115;28;20330;-66
2021/09/12 01:12:28;;;;;;;6.22;2.30;;;29.20;99.90;;;;;;4194208;28;20036;-66
2021/09/12 01:14:32;;;;;;;4.70;2.22;;;29.30;99.90;;;;;;4194414;28;20064;-67
2021/09/12 01:16:37;;;;;;;7.32;2.17;;;29.40;99.90;;;;;;4196325;28;20056;-66
2021/09/12 01:18:43;;;;;;;2.92;2.10;;;29.60;99.90;;;;;;4190420;28;20052;-66
2021/09/12 01:20:48;;;;;;;6.75;1.80;;;29.60;99.90;;;;;;4172768;28;20531;-66
2021/09/12 01:22:53;;;;;;;3.80;1.80;;;29.60;99.90;;;;;;4191163;28;20049;-66
2021/09/12 01:24:58;;;;;;;4.28;2.00;;;29.60;99.90;;;;;;4190295;28;20105;-66
2021/09/12 01:27:05;;;;;;;4.43;1.70;;;29.50;99.90;;;;;;4179764;28;20525;-66
2021/09/12 01:29:13;;;;;;;3.47;1.80;;;29.60;99.90;;;;;;4172806;28;20123;-66
2021/09/12 01:31:25;;;;;;;4.30;1.80;;;29.60;99.90;;;;;;4185720;28;20052;-66
2021/09/12 01:33:31;;;;;;;4.00;1.70;;;29.60;99.90;;;;;;4187293;28;20478;-67
2021/09/12 01:35:35;;;;;;;6.05;1.80;;;29.60;99.90;;;;;;4190806;28;20083;-66
2021/09/12 01:37:40;;;;;;;4.15;1.40;;;29.60;99.90;;;;;;4189383;28;20418;-66
2021/09/12 01:39:44;;;;;;;4.70;1.25;;;29.50;99.90;;;;;;4191137;28;20044;-66
2021/09/12 01:41:49;;;;;;;7.47;1.75;;;29.50;99.90;;;;;;4191710;28;20060;-66
2021/09/12 01:43:55;;;;;;;7.13;1.80;;;29.60;99.90;;;;;;4191830;28;20040;-66
2021/09/12 01:46:00;;;;;;;6.43;1.80;;;29.70;99.90;;;;;;4192440;28;20422;-66
2021/09/12 01:48:05;;;;;;;4.53;1.83;;;29.70;99.90;;;;;;4190652;28;20040;-66
2021/09/12 01:50:10;;;;;;;5.78;1.63;;;29.70;99.90;;;;;;4173025;28;20471;-66
2021/09/12 01:52:15;;;;;;;4.72;1.70;;;29.60;99.90;;;;;;4191465;28;20044;-65
2021/09/12 01:54:20;;;;;;;6.22;2.05;;;29.50;99.90;;;;;;4190852;28;20045;-65
2021/09/12 01:56:24;;;;;;;4.63;1.88;;;29.50;99.90;;;;;;4173001;28;20033;-65
2021/09/12 01:58:29;;;;;;;6.30;2.90;;;29.70;99.90;;;;;;4192688;28;20048;-65
2021/09/12 02:00:33;;;;;;;6.70;2.20;;;29.80;99.90;;;;;;4193284;28;20040;-65
2021/09/12 02:02:39;;;;;;;3.50;1.60;;;29.80;99.90;;;;;;4209515;28;20047;-66
2021/09/12 02:04:44;;;;;;;4.53;1.70;;;29.80;99.90;;;;;;4208318;28;20036;-66
2021/09/12 02:06:48;;;;;;;4.07;1.75;;;29.80;99.90;;;;;;4194449;28;20045;-66
2021/09/12 02:08:53;;;;;;;5.22;1.45;;;29.80;99.90;;;;;;4192824;28;20032;-66
2021/09/12 02:10:57;;;;;;;2.75;1.52;;;29.90;99.90;;;;;;4207502;28;20040;-66
2021/09/12 02:13:02;;;;;;;3.88;1.55;;;30.10;99.90;;;;;;4194373;28;20440;-66
2021/09/12 02:15:07;;;;;;;3.78;1.30;;;30.20;99.90;;;;;;4192561;28;20533;-66
2021/09/12 02:17:11;;;;;;;2.03;1.50;;;30.20;99.90;;;;;;4177812;28;20052;-66
2021/09/12 02:19:16;;;;;;;3.97;1.63;;;30.20;99.90;;;;;;4195697;28;20056;-66
2021/09/12 02:21:21;;;;;;;3.85;1.20;;;30.30;99.90;;;;;;4193638;28;20498;-68
2021/09/12 02:23:25;;;;;;;2.17;1.10;;;30.30;99.90;;;;;;4193604;28;20067;-67
2021/09/12 02:25:30;;;;;;;2.45;1.30;;;30.30;99.90;;;;;;4193246;28;20044;-67
2021/09/12 02:27:34;;;;;;;4.68;1.40;;;30.30;99.90;;;;;;4193853;28;20044;-67
2021/09/12 02:29:39;;;;;;;6.05;1.40;;;30.40;99.90;;;;;;4194972;28;20045;-67
2021/09/12 02:31:44;;;;;;;2.55;1.50;;;30.40;99.90;;;;;;4192877;28;20126;-68
2021/09/12 02:33:48;;;;;;;3.03;1.40;;;30.40;99.90;;;;;;4175558;28;20058;-67
2021/09/12 02:35:52;;;;;;;3.10;1.20;;;30.40;99.90;;;;;;4195373;28;20036;-67
2021/09/12 02:37:57;;;;;;;4.85;1.30;;;30.40;99.90;;;;;;4193579;28;20425;-69
2021/09/12 02:40:02;;;;;;;2.78;1.05;;;30.50;99.90;;;;;;4194705;28;20029;-67
2021/09/12 02:42:07;;;;;;;2.10;1.00;;;30.50;99.90;;;;;;4192742;28;20074;-67
2021/09/12 02:44:11;;;;;;;3.20;1.30;;;30.40;99.90;;;;;;4194843;28;20048;-67
2021/09/12 02:46:16;;;;;;;2.70;1.38;;;30.50;99.90;;;;;;4194820;28;20490;-67
2021/09/12 02:48:20;;;;;;;3.03;1.20;;;30.50;99.90;;;;;;4195393;28;20045;-67
2021/09/12 02:50:25;;;;;;;4.20;0.98;;;30.50;99.90;;;;;;4195205;28;20041;-67
2021/09/12 02:52:29;;;;;;;2.85;1.10;;;30.60;99.90;;;;;;4194324;28;20048;-66
2021/09/12 02:54:34;;;;;;;6.47;1.10;;;30.50;99.90;;;;;;4194161;28;20041;-67
2021/09/12 02:56:39;;;;;;;1.60;1.15;;;30.60;99.90;;;;;;4193861;28;20510;-66
2021/09/12 02:58:43;;;;;;;2.28;1.35;;;30.60;99.90;;;;;;4178716;28;20053;-66
2021/09/12 03:00:47;;;;;;;4.47;1.35;;;30.60;99.90;;;;;;4194610;28;20041;-67
2021/09/12 03:02:52;;;;;;;6.13;1.13;;;30.70;99.90;;;;;;4195518;28;20048;-66
2021/09/12 03:04:57;;;;;;;2.03;0.90;;;30.80;99.90;;;;;;4197325;28;20341;-67
2021/09/12 03:07:02;;;;;;;1.15;0.85;;;30.80;99.90;;;;;;4197460;28;20044;-67
2021/09/12 03:09:06;;;;;;;2.92;0.90;;;30.90;99.90;;;;;;4198615;28;20720;-67
2021/09/12 03:11:11;;;;;;;2.00;0.90;;;31.00;99.90;;;;;;4197505;28;20154;-67
2021/09/12 03:13:15;;;;;;;3.33;1.02;;;31.10;99.90;;;;;;4197989;28;20497;-66
2021/09/12 03:15:20;;;;;;;2.20;0.80;;;31.20;99.90;;;;;;4197402;28;20087;-67
2021/09/12 03:17:25;;;;;;;3.58;1.00;;;31.20;99.90;;;;;;4181109;28;20147;-67
2021/09/12 03:19:29;;;;;;;4.25;1.00;;;31.30;99.90;;;;;;4197862;28;20048;-67
2021/09/12 03:21:34;;;;;;;3.40;0.70;;;31.30;99.90;;;;;;4197570;28;20066;-66
2021/09/12 03:23:39;;;;;;;2.65;0.77;;;31.30;99.90;;;;;;4196781;28;20143;-67
2021/09/12 03:25:43;;;;;;;1.25;0.60;;;31.40;99.90;;;;;;4196847;28;20040;-67
2021/09/12 03:27:48;;;;;;;1.80;0.80;;;31.50;99.90;;;;;;4197063;28;20140;-66
2021/09/12 03:29:53;;;;;;;2.25;0.68;;;31.50;99.90;;;;;;4180210;28;20048;-67
2021/09/12 03:31:57;;;;;;;2.58;0.80;;;31.50;99.90;;;;;;4198285;28;20512;-67
2021/09/12 03:34:02;;;;;;;1.42;0.70;;;31.40;99.90;;;;;;4196647;28;20082;-67
2021/09/12 03:36:07;;;;;;;2.65;0.70;;;31.60;99.90;;;;;;4196899;28;20518;-66
2021/09/12 03:38:11;;;;;;;2.03;0.70;;;31.70;99.90;;;;;;4197094;28;20115;-67
2021/09/12 03:40:16;;;;;;;1.70;0.70;;;31.70;99.90;;;;;;4196906;28;20098;-67
2021/09/12 03:42:20;;;;;;;2.35;0.85;;;31.80;99.90;;;;;;4197137;28;20450;-67
2021/09/12 03:44:24;;;;;;;1.35;0.80;;;31.90;99.90;;;;;;4197344;28;20288;-67
2021/09/12 03:46:30;;;;;;;1.80;0.73;;;32.00;99.90;;;;;;4197847;28;20064;-67
2021/09/12 03:48:34;;;;;;;1.45;0.77;;;32.00;99.90;;;;;;4198411;28;20094;-67
2021/09/12 03:50:38;;;;;;;2.28;0.90;;;32.10;99.90;;;;;;4196195;28;20059;-66
2021/09/12 03:52:43;;;;;;;5.93;0.80;;;32.20;99.90;;;;;;4197730;28;20122;-66
2021/09/12 03:54:48;;;;;;;3.40;1.33;;;32.30;99.90;;;;;;4196001;28;20053;-66
2021/09/12 03:56:52;;;;;;;3.30;0.90;;;32.30;99.90;;;;;;4196701;28;20052;-67
2021/09/12 03:58:57;;;;;;;2.25;1.00;;;32.40;99.90;;;;;;4197816;28;20495;-66
2021/09/12 04:01:01;;;;;;;4.82;1.00;;;32.40;99.60;;;;;;4197502;28;20121;-66
2021/09/12 04:03:06;;;;;;;5.30;1.20;;;32.40;99.90;;;;;;4197815;28;20036;-66
2021/09/12 04:05:11;;;;;;;1.98;0.80;;;32.40;99.90;;;;;;4198122;28;20044;-66
2021/09/12 04:07:16;;;;;;;3.65;0.90;;;32.40;99.90;;;;;;4196438;28;20037;-66
2021/09/12 04:09:21;;;;;;;2.65;1.10;;;32.50;99.90;;;;;;4197386;28;20041;-66
2021/09/12 04:11:25;;;;;;;1.88;0.88;;;32.50;99.90;;;;;;4196026;28;20032;-68
2021/09/12 04:13:30;;;;;;;3.22;1.17;;;32.40;99.70;;;;;;4180234;28;20147;-67
2021/09/12 04:15:34;;;;;;;1.30;0.90;;;32.40;99.90;;;;;;4195451;28;20079;-68
2021/09/12 04:17:39;;;;;;;2.33;0.85;;;32.40;98.50;;;;;;4197840;28;20094;-68
2021/09/12 04:19:43;;;;;;;3.10;0.82;;;32.30;98.80;;;;;;4196355;28;20120;-67
2021/09/12 04:21:48;;;;;;;1.13;0.80;;;32.30;98.80;;;;;;4181238;28;20045;-67
2021/09/12 04:23:53;;;;;;;1.63;0.75;;;32.40;98.90;;;;;;4196630;28;20045;-67
2021/09/12 04:25:57;;;;;;;5.60;1.20;;;32.40;98.80;;;;;;4197787;28;20047;-67
2021/09/12 04:28:01;;;;;;;3.08;1.30;;;32.50;98.60;;;;;;4197407;28;20506;-65
2021/09/12 04:30:08;;;;;;;1.85;1.00;;;32.50;98.50;;;;;;4196667;28;20032;-66
2021/09/12 04:32:12;;;;;;;1.67;1.00;;;32.50;98.20;;;;;;4197367;28;20048;-67
2021/09/12 04:34:17;;;;;;;2.70;0.80;;;32.60;99.10;;;;;;4197617;28;20522;-67
2021/09/12 04:36:22;;;;;;;1.13;0.80;;;32.70;98.20;;;;;;4180095;28;20033;-67
2021/09/12 04:38:26;;;;;;;2.55;1.08;;;32.60;97.70;;;;;;4197630;28;20049;-67
2021/09/12 04:40:31;;;;;;;3.70;1.00;;;32.70;97.80;;;;;;4195925;28;20513;-67
2021/09/12 04:42:36;;;;;;;2.50;0.90;;;32.60;97.70;;;;;;4196124;28;20048;-67
2021/09/12 04:44:40;;;;;;;1.90;0.80;;;32.80;98.30;;;;;;4197542;28;20064;-66
2021/09/12 04:46:45;;;;;;;2.08;1.20;;;33.00;97.50;;;;;;4197555;28;20036;-67
2021/09/12 04:48:50;;;;;;;2.85;0.90;;;33.10;97.50;;;;;;4196345;28;20445;-67
2021/09/12 04:50:58;;;;;;;2.30;1.00;;;33.10;97.00;;;;;;4197489;28;20135;-67
2021/09/12 04:53:02;;;;;;;2.60;1.58;;;33.20;97.60;;;;;;4195809;28;20055;-66
2021/09/12 04:55:07;;;;;;;2.08;0.95;;;33.20;97.00;;;;;;4179708;28;20527;-67
2021/09/12 04:57:11;;;;;;;2.20;1.00;;;33.20;96.90;;;;;;4195744;28;20098;-68
2021/09/12 04:59:16;;;;;;;1.95;1.00;;;33.10;96.00;;;;;;4195743;28;20158;-67
2021/09/12 05:01:20;;;;;;;2.58;1.02;;;33.00;96.40;;;;;;4195350;28;20051;-68
2021/09/12 05:03:25;;;;;;;4.80;1.10;;;32.90;97.60;;;;;;4196686;28;20517;-67
2021/09/12 05:05:30;;;;;;;2.67;1.20;;;33.00;96.60;;;;;;4196207;28;20574;-69
2021/09/12 05:07:35;;;;;;;5.57;1.40;;;33.00;96.30;;;;;;4195118;28;20048;-68
2021/09/12 05:09:39;;;;;;;3.65;1.10;;;33.10;96.80;;;;;;4195435;28;20040;-67
2021/09/12 05:11:44;;;;;;;2.05;0.80;;;33.10;95.60;;;;;;4196231;28;20037;-68
2021/09/12 05:13:49;;;;;;;2.28;0.90;;;33.20;95.90;;;;;;4195348;28;20508;-67
2021/09/12 05:15:54;;;;;;;3.80;1.40;;;33.30;95.60;;;;;;4195695;28;20110;-67
2021/09/12 05:17:58;;;;;;;2.58;1.00;;;33.30;95.90;;;;;;4194841;28;20086;-68
2021/09/12 05:20:04;;;;;;;5.82;1.20;;;33.40;95.30;;;;;;4179339;28;20049;-68
2021/09/12 05:22:09;;;;;;;3.47;1.30;;;33.60;96.00;;;;;;4193316;28;20486;-67
2021/09/12 05:24:13;;;;;;;0.82;0.55;;;33.60;95.40;;;;;;4193805;28;20106;-66
2021/09/12 05:26:18;;;;;;;3.88;1.10;;;33.70;94.70;;;;;;4192966;28;20172;-67
2021/09/12 05:28:22;;;;;;;4.47;1.13;;;33.70;95.00;;;;;;4190794;28;20127;-69
2021/09/12 05:30:27;;;;;;;3.67;1.08;;;33.90;95.40;;;;;;4193457;28;20415;-67
2021/09/12 05:32:32;;;;;;;1.95;0.90;;;33.80;93.80;;;;;;4192504;28;20122;-68
2021/09/12 05:34:36;;;;;;;1.27;0.80;;;33.60;93.70;;;;;;4190973;28;20463;-67
2021/09/12 05:36:41;;;;;;;1.25;0.85;;;33.50;94.30;;;;;;4193978;28;20478;-67
2021/09/12 05:38:45;;;;;;;2.13;0.82;;;33.50;94.20;;;;;;4192734;28;20082;-68
2021/09/12 05:40:50;;;;;;;2.83;1.02;;;33.60;94.50;;;;;;4193159;28;20106;-67
2021/09/12 05:42:54;;;;;;;3.08;1.10;;;33.50;94.60;;;;;;4175824;28;20392;-67
2021/09/12 05:44:59;;;;;;;4.70;1.27;;;33.50;94.60;;;;;;4193603;28;20056;-68
2021/09/12 05:47:03;;;;;;;2.75;0.80;;;33.60;94.30;;;;;;4193930;28;20062;-67
2021/09/12 05:49:08;;;;;;;3.95;1.00;;;33.60;93.90;;;;;;4176316;28;20408;-68
2021/09/12 05:51:13;;;;;;;2.47;1.10;;;33.60;93.80;;;;;;4176151;28;20159;-68
2021/09/12 05:53:20;;;;;;;4.28;0.90;;;33.80;93.80;;;;;;4177868;28;20084;-68
2021/09/12 05:55:25;;;;;;;5.07;1.45;;;33.80;92.90;;;;;;4177370;28;20088;-68
2021/09/12 05:57:29;;;;;;;2.65;0.82;;;33.80;93.10;;;;;;4191867;28;20048;-68
2021/09/12 05:59:33;;;;;;;1.95;1.02;;;33.90;93.20;;;;;;4192068;28;20408;-68
2021/09/12 06:01:38;;;;;;;3.67;1.10;;;33.90;92.80;;;;;;4193433;28;20422;-68
2021/09/12 06:03:43;;;;;;;2.70;1.05;;;33.90;92.80;;;;;;4192460;28;20079;-68
2021/09/12 06:05:47;;;;;;;3.00;0.77;;;34.00;92.70;;;;;;4193580;28;20490;-68
2021/09/12 06:07:52;;;;;;;3.22;1.50;;;34.10;92.50;;;;;;4192046;28;20075;-69
2021/09/12 06:09:56;;;;;;;2.60;0.88;;;34.00;92.50;;;;;;4191236;28;20040;-69
2021/09/12 06:12:01;;;;;;;3.15;0.90;;;34.10;92.40;;;;;;4176052;28;20489;-68
2021/09/12 06:14:05;;;;;;;2.50;0.80;;;34.20;91.90;;;;;;4189963;28;20052;-68
2021/09/12 06:16:10;;;;;;;6.97;1.00;;;34.20;91.90;;;;;;4192419;28;20422;-68
2021/09/12 06:18:14;;;;;;;1.75;1.20;;;34.10;91.50;;;;;;4193571;28;20048;-69
2021/09/12 06:20:19;;;;;;;1.08;0.70;;;34.00;92.10;;;;;;4194027;28;20080;-68
2021/09/12 06:22:24;;;;;;;3.20;0.73;;;33.80;92.00;;;;;;4194007;28;20040;-68
2021/09/12 06:24:28;;;;;;;4.60;1.02;;;34.10;92.60;;;;;;4192504;28;20047;-68
2021/09/12 06:26:33;;;;;;;2.88;0.80;;;34.10;92.30;;;;;;4182528;28;20040;-68
2021/09/12 06:28:38;;;;;;;3.10;0.70;;;34.20;92.00;;;;;;4192435;28;20048;-67
2021/09/12 06:30:43;;;;;;;5.97;1.02;;;34.30;90.90;;;;;;4191893;28;20055;-71
2021/09/12 06:32:48;;;;;;;3.67;0.95;;;34.20;90.90;;;;;;4192467;28;20049;-69
2021/09/12 06:34:53;;;;;;;4.10;1.10;;;34.00;91.00;;;;;;4192610;28;20529;-70
2021/09/12 06:36:58;;;;;;;1.88;0.90;;;34.00;91.90;;;;;;4193580;28;20045;-68
2021/09/12 06:39:03;;;;;;;2.58;0.98;;;34.00;92.00;;;;;;4193265;28;20049;-69
2021/09/12 06:41:07;;;;;;;1.75;0.90;;;34.00;91.80;;;;;;4193464;28;20047;-72
2021/09/12 06:43:12;;;;;;;1.45;0.88;;;34.20;91.60;;;;;;4192874;28;20049;-72
2021/09/12 06:45:16;;;;;;;1.45;0.80;;;34.40;91.60;;;;;;4190627;28;20359;-70
2021/09/12 06:47:20;;;;;;;3.35;1.10;;;34.40;91.40;;;;;;4191451;28;20654;-71
2021/09/12 06:49:25;;;;;;;5.88;1.15;;;34.40;91.10;;;;;;4174147;28;20041;-70
2021/09/12 06:51:31;;;;;;;1.85;1.02;;;34.30;91.40;;;;;;4191620;28;20044;-70
2021/09/12 06:53:36;;;;;;;2.08;1.00;;;34.20;91.20;;;;;;4191133;28;20056;-71
2021/09/12 06:55:41;;;;;;;4.68;1.10;;;34.20;91.20;;;;;;4190555;28;20064;-70
2021/09/12 06:57:45;;;;;;;4.00;1.00;;;34.30;91.20;;;;;;4191186;28;20060;-70
2021/09/12 06:59:50;;;;;;;2.13;1.10;;;34.30;91.50;;;;;;4190783;28;20153;-70
2021/09/12 07:01:54;;;;;;;1.42;1.27;;;34.40;91.20;;;;;;4190563;28;20076;-70
2021/09/12 07:03:59;;;;;;;3.53;1.20;;;34.30;90.70;;;;;;4190906;28;20036;-70
2021/09/12 07:06:04;;;;;;;2.58;0.90;;;34.30;90.50;;;;;;4190807;28;20474;-70
2021/09/12 07:08:08;;;;;;;3.00;0.90;;;34.10;90.80;;;;;;4191333;28;20156;-70
2021/09/12 07:10:13;;;;;;;1.40;1.02;;;34.00;90.60;;;;;;4189515;28;20132;-69
2021/09/12 07:12:18;;;;;;;1.42;1.00;;;34.00;91.40;;;;;;4189519;28;20091;-69
2021/09/12 07:14:22;;;;;;;4.22;1.23;;;34.00;91.50;;;;;;4190134;28;20053;-70
2021/09/12 07:16:26;;;;;;;1.42;0.93;;;33.80;91.10;;;;;;4189770;28;20411;-69
2021/09/12 07:18:32;;;;;;;4.10;1.10;;;33.80;91.90;;;;;;4189234;28;20163;-69
2021/09/12 07:20:36;;;;;;;3.20;1.45;;;33.90;91.60;;;;;;4172156;28;20527;-69
2021/09/12 07:22:41;;;;;;;1.80;1.05;;;34.10;90.90;;;;;;4190880;28;20470;-70
2021/09/12 07:24:45;;;;;;;4.55;1.77;;;34.10;90.80;;;;;;4189956;28;20044;-70
2021/09/12 07:26:50;;;;;;;6.05;1.20;;;34.10;90.40;;;;;;4190338;28;20151;-70
2021/09/12 07:28:55;;;;;;;2.78;0.90;;;34.30;90.40;;;;;;4191247;28;20507;-70
2021/09/12 07:31:01;;;;;;;4.82;1.23;;;34.40;90.60;;;;;;4191596;28;20885;-71
2021/09/12 07:33:06;;;;;;;3.15;1.25;;;34.60;90.20;;;;;;4190981;28;20048;-70
2021/09/12 07:35:10;;;;;;;1.33;1.00;;;34.60;89.20;;;;;;4192555;28;20248;-69
2021/09/12 07:37:15;;;;;;;2.55;1.20;;;34.50;89.50;;;;;;4192754;28;20036;-68
2021/09/12 07:39:19;;;;;;;3.05;1.30;;;34.30;89.90;;;;;;4192064;28;20483;-69
2021/09/12 07:41:24;;;;;;;3.03;1.10;;;34.40;89.40;;;;;;4187928;28;20495;-69
2021/09/12 07:43:29;;;;;;;2.90;1.48;;;34.40;89.60;;;;;;4190946;28;20044;-69
2021/09/12 07:45:33;;;;;;;2.22;1.20;;;34.50;88.90;;;;;;4192440;28;20071;-70
2021/09/12 07:47:38;;;;;;;4.72;1.00;;;34.50;88.10;;;;;;4193153;28;20072;-70
2021/09/12 07:49:42;;;;;;;1.58;1.00;;;34.40;87.40;;;;;;4191212;28;20531;-70
2021/09/12 07:51:47;;;;;;;4.38;1.50;;;34.40;88.40;;;;;;4193906;28;20036;-68
2021/09/12 07:53:51;;;;;;;3.47;1.52;;;34.50;89.30;;;;;;4194240;28;20131;-69
2021/09/12 07:55:56;;;;;;;2.92;1.40;;;34.60;88.90;;;;;;4195745;28;20348;-69
2021/09/12 07:58:00;;;;;;;15.50;11.40;;;34.70;88.40;;;;;;4194437;28;20408;-69
2021/09/12 08:00:05;;;;;;;3.35;1.95;;;34.70;88.40;;;;;;4161265;28;20084;-69
2021/09/12 08:02:13;;;;;;;4.85;1.48;;;34.80;87.90;;;;;;4193591;28;20044;-70
2021/09/12 08:04:18;;;;;;;1.98;1.08;;;34.70;86.70;;;;;;4164406;28;20213;-69
2021/09/12 08:06:23;;;;;;;4.82;2.60;;;34.70;87.60;;;;;;4195342;28;20063;-68
2021/09/12 08:08:27;;;;;;;7.32;1.33;;;34.70;87.50;;;;;;4178978;28;20106;-69
2021/09/12 08:10:31;;;;;;;2.28;1.00;;;34.70;87.20;;;;;;4193800;28;20052;-70
2021/09/12 08:12:36;;;;;;;3.25;1.88;;;34.60;87.70;;;;;;4190067;28;20040;-70
2021/09/12 08:14:40;;;;;;;5.05;3.25;;;34.60;87.50;;;;;;4194650;28;20056;-70
2021/09/12 08:16:45;;;;;;;1.73;1.48;;;34.60;87.10;;;;;;4193039;28;20449;-70
2021/09/12 08:18:50;;;;;;;2.13;1.25;;;34.60;87.40;;;;;;4195150;28;20044;-70
2021/09/12 08:20:54;;;;;;;3.50;2.40;;;34.60;86.00;;;;;;4195392;28;20052;-70
2021/09/12 08:22:58;;;;;;;7.70;2.35;;;34.70;87.10;;;;;;4195533;28;20415;-70
2021/09/12 08:25:04;;;;;;;4.88;1.33;;;34.70;86.00;;;;;;4194960;28;20045;-69
2021/09/12 08:27:08;;;;;;;3.20;1.20;;;34.80;86.10;;;;;;4193857;28;20044;-69
2021/09/12 08:29:13;;;;;;;3.58;1.10;;;34.60;85.40;;;;;;4193252;28;20571;-70
2021/09/12 08:31:18;;;;;;;1.73;1.00;;;34.50;86.20;;;;;;4193433;28;20398;-69
2021/09/12 08:33:23;;;;;;;4.47;1.40;;;34.50;87.10;;;;;;4191930;28;20041;-70
2021/09/12 08:35:27;;;;;;;3.83;1.90;;;34.50;87.20;;;;;;4160811;28;20554;-70
2021/09/12 08:37:32;;;;;;;1.75;1.40;;;34.70;88.40;;;;;;4195452;28;20048;-69
2021/09/12 08:39:37;;;;;;;1.55;1.25;;;34.70;87.00;;;;;;4193178;28;20052;-69
2021/09/12 08:41:41;;;;;;;2.92;1.30;;;34.70;88.10;;;;;;4194230;28;20534;-68
2021/09/12 08:43:47;;;;;;;3.10;1.25;;;34.60;86.70;;;;;;4195080;28;20049;-69
2021/09/12 08:45:51;;;;;;;1.60;1.20;;;34.60;86.80;;;;;;4175438;28;20045;-69
2021/09/12 08:47:56;;;;;;;4.88;1.40;;;34.70;86.70;;;;;;4161405;28;20059;-67
2021/09/12 08:50:00;;;;;;;4.22;2.08;;;34.70;87.10;;;;;;4193624;28;20470;-67
2021/09/12 08:52:05;;;;;;;3.13;1.38;;;34.70;87.40;;;;;;4177393;28;20075;-69
2021/09/12 08:54:09;;;;;;;3.35;1.38;;;34.70;86.30;;;;;;4177365;28;20060;-68
2021/09/12 08:56:14;;;;;;;3.67;1.75;;;34.60;86.90;;;;;;4194947;28;20072;-70
2021/09/12 08:58:18;;;;;;;2.28;1.48;;;34.60;87.10;;;;;;4193584;28;20552;-69
2021/09/12 09:00:25;;;;;;;3.45;1.10;;;34.60;86.10;;;;;;4194496;28;20106;-68
2021/09/12 09:02:29;;;;;;;4.25;1.13;;;34.50;86.20;;;;;;4178158;28;20477;-70
2021/09/12 09:04:35;;;;;;;3.20;1.08;;;34.60;87.00;;;;;;4193674;28;20319;-68
2021/09/12 09:06:40;;;;;;;2.35;1.40;;;34.60;87.00;;;;;;4193601;28;20064;-69
2021/09/12 09:08:55;;;;;;;2.35;1.42;;;34.50;88.00;;;;;;4194739;28;20048;-69
2021/09/12 09:11:02;;;;;;;2.10;1.25;;;34.60;86.70;;;;;;4193079;28;20256;-69
2021/09/12 09:13:29;;;;;;;4.05;1.52;;;34.60;87.60;;;;;;4161315;28;20053;-69
2021/09/12 09:15:34;;;;;;;2.47;1.55;;;34.60;87.60;;;;;;4193775;28;20513;-69
2021/09/12 09:17:40;;;;;;;4.20;1.80;;;34.60;87.90;;;;;;4192488;28;20119;-69
2021/09/12 09:19:55;;;;;;;4.22;1.80;;;34.60;87.30;;;;;;4175942;28;20048;-69
2021/09/12 09:22:00;;;;;;;3.05;1.38;;;34.60;86.60;;;;;;4192239;28;20165;-67
2021/09/12 09:24:10;;;;;;;10.75;1.90;;;34.50;87.10;;;;;;4191719;28;20123;-68
2021/09/12 09:26:21;;;;;;;5.82;1.55;;;34.50;87.30;;;;;;4192021;28;20068;-69
2021/09/12 09:28:27;;;;;;;5.05;1.38;;;34.50;87.00;;;;;;4191863;28;20036;-69
2021/09/12 09:30:37;;;;;;;4.18;2.20;;;34.50;87.40;;;;;;4191842;28;20544;-71
2021/09/12 09:32:42;;;;;;;7.75;2.80;;;34.60;85.60;;;;;;4176214;28;20079;-70
2021/09/12 09:34:46;;;;;;;4.07;2.78;;;34.50;84.00;;;;;;4191569;28;20387;-69
2021/09/12 09:36:50;;;;;;;4.80;2.55;;;34.50;84.70;;;;;;4192134;28;20048;-69
2021/09/12 09:38:56;;;;;;;2.67;1.73;;;34.60;84.00;;;;;;4192254;28;20132;-69
2021/09/12 09:41:11;;;;;;;3.83;1.70;;;34.60;84.80;;;;;;4191498;28;20041;-69
2021/09/12 09:43:16;;;;;;;5.13;2.67;;;34.70;83.60;;;;;;4127475;28;20895;-72
2021/09/12 09:45:21;;;;;;;7.63;1.92;;;34.70;83.00;;;;;;4190873;28;20032;-68
2021/09/12 09:47:27;;;;;;;4.78;2.65;;;34.70;84.00;;;;;;4191802;28;20079;-71
2021/09/12 09:49:36;;;;;;;4.90;2.50;;;34.70;83.70;;;;;;4193841;28;20506;-70
2021/09/12 09:51:41;;;;;;;6.63;2.40;;;34.60;83.70;;;;;;4193170;28;20056;-68
2021/09/12 09:53:46;;;;;;;4.78;2.10;;;34.60;83.30;;;;;;4190087;28;20048;-69
2021/09/12 09:55:51;;;;;;;5.95;2.10;;;34.50;84.50;;;;;;4176602;28;20535;-68
2021/09/12 09:57:56;;;;;;;5.68;2.17;;;34.50;84.70;;;;;;4175398;28;20497;-69
2021/09/12 10:00:02;;;;;;;6.45;1.45;;;34.50;84.70;;;;;;4142595;28;20405;-70
2021/09/12 10:02:06;;;;;;;3.40;1.92;;;34.40;85.10;;;;;;4174402;28;20103;-69
2021/09/12 10:04:13;;;;;;;4.22;2.00;;;34.40;85.60;;;;;;4142185;28;20321;-73
2021/09/12 10:06:17;;;;;;;3.92;1.95;;;34.40;85.80;;;;;;4159486;28;20084;-70
2021/09/12 10:08:23;;;;;;;5.75;2.45;;;34.40;85.30;;;;;;4159231;28;20061;-69
2021/09/12 10:10:29;;;;;;;5.60;2.72;;;34.30;84.90;;;;;;4142532;28;20105;-71
2021/09/12 10:12:35;;;;;;;4.82;2.60;;;34.30;85.50;;;;;;4157725;28;20503;-70
2021/09/12 10:14:56;;;;;;;3.75;2.03;;;34.30;84.40;;;;;;4140105;28;20104;-70
2021/09/12 10:17:01;;;;;;;3.72;2.40;;;34.20;84.40;;;;;;4141256;28;20054;-71
2021/09/12 10:19:06;;;;;;;3.17;2.25;;;34.20;85.10;;;;;;4155404;28;20565;-69
2021/09/12 10:21:28;;;;;;;4.47;2.17;;;34.20;84.70;;;;;;4156626;28;20053;-71
2021/09/12 10:23:32;;;;;;;7.28;2.20;;;34.20;84.80;;;;;;4141556;28;20120;-70
2021/09/12 10:25:49;;;;;;;4.68;2.65;;;34.10;84.70;;;;;;4141341;28;20046;-71
2021/09/12 10:28:07;;;;;;;7.28;3.80;;;34.10;84.90;;;;;;4147258;28;20519;-68
2021/09/12 10:30:38;;;;;;;8.65;4.28;;;34.10;85.10;;;;;;4188974;28;20053;-70
2021/09/12 10:32:42;;;;;;;10.85;6.70;;;34.10;85.10;;;;;;4172803;28;20048;-70
2021/09/12 10:35:14;;;;;;;8.25;4.45;;;34.10;85.00;;;;;;4172641;28;20114;-70
2021/09/12 10:37:31;;;;;;;7.43;4.40;;;34.00;85.10;;;;;;4187340;28;20222;-71
2021/09/12 10:39:36;;;;;;;5.65;3.97;;;34.00;85.60;;;;;;4174384;28;20498;-71
2021/09/12 10:41:41;;;;;;;6.57;4.03;;;34.00;85.10;;;;;;4158059;28;20415;-70
2021/09/12 10:43:49;;;;;;;7.50;4.32;;;34.00;85.00;;;;;;4192175;28;20048;-71
2021/09/12 10:46:07;;;;;;;4.47;3.00;;;34.00;85.50;;;;;;4190895;28;20052;-69
2021/09/12 10:48:20;;;;;;;8.43;3.33;;;34.00;85.70;;;;;;4183192;28;20036;-69
2021/09/12 10:50:44;;;;;;;7.00;3.13;;;33.90;85.70;;;;;;4192634;28;20256;-70
2021/09/12 10:52:49;;;;;;;8.75;3.03;;;33.90;86.40;;;;;;4193477;28;20046;-69